createdAt,value
2022-08-28T00:01:21.539Z,99094.60
2022-08-28T00:06:24.722Z,99089.44
2022-08-28T00:11:27.735Z,99088.30
2022-08-28T00:16:31.680Z,99082.79
2022-08-28T00:21:34.780Z,99074.41
2022-08-28T00:26:56.822Z,99070.92
2022-08-28T00:31:59.880Z,99068.85
2022-08-28T00:37:02.960Z,99063.84
2022-08-28T00:42:06.311Z,99061.48
2022-08-28T00:47:10.248Z,99051.90
2022-08-28T00:52:16.215Z,99057.29
2022-08-28T00:57:29.223Z,99051.55
2022-08-28T01:02:32.357Z,99045.32
2022-08-28T01:07:38.665Z,99046.02
2022-08-28T01:12:42.515Z,99051.17
2022-08-28T01:17:51.638Z,99051.77
2022-08-28T01:23:01.057Z,99049.77
2022-08-28T01:28:12.650Z,99049.65
2022-08-28T01:33:16.897Z,99047.95
2022-08-28T01:38:20.219Z,99047.27
2022-08-28T01:43:31.611Z,99047.98
2022-08-28T01:48:40.499Z,99045.58
2022-08-28T01:53:45.408Z,99049.17
2022-08-28T01:58:50.219Z,99051.92
2022-08-28T02:03:53.251Z,99056.35
2022-08-28T02:08:56.367Z,99057.49
2022-08-28T02:14:00.320Z,99057.09
2022-08-28T02:19:04.427Z,99053.52
2022-08-28T02:24:07.740Z,99050.46
2022-08-28T02:29:12.470Z,99051.91
2022-08-28T02:34:15.471Z,99050.58
2022-08-28T02:39:18.305Z,99050.55
2022-08-28T02:44:21.454Z,99046.79
2022-08-28T02:49:24.510Z,99044.95
2022-08-28T02:54:27.388Z,99054.08
2022-08-28T02:59:30.421Z,99054.63
2022-08-28T03:04:36.181Z,99062.75
2022-08-28T03:09:41.840Z,99070.14
2022-08-28T03:14:44.813Z,99071.46
2022-08-28T03:19:50.229Z,99069.84
2022-08-28T03:24:53.232Z,99062.96
2022-08-28T03:29:56.193Z,99061.30
2022-08-28T03:34:59.194Z,99056.06
2022-08-28T03:40:02.144Z,99056.34
2022-08-28T03:45:09.289Z,99059.63
2022-08-28T03:50:13.228Z,99063.46
2022-08-28T03:55:19.001Z,99064.15
2022-08-28T04:00:22.112Z,99068.73
2022-08-28T04:05:25.379Z,99077.71
2022-08-28T04:10:29.840Z,99077.95
2022-08-28T04:15:32.868Z,99081.41
2022-08-28T04:20:36.664Z,99079.02
2022-08-28T04:25:41.036Z,99075.46
2022-08-28T04:30:44.027Z,99078.63
2022-08-28T04:35:47.142Z,99079.05
2022-08-28T04:40:50.163Z,99075.91
2022-08-28T04:45:53.024Z,99078.17
2022-08-28T04:50:56.065Z,99082.47
2022-08-28T04:56:00.800Z,99081.05
2022-08-28T05:01:15.856Z,99080.79
2022-08-28T05:06:19.026Z,99089.02
2022-08-28T05:11:33.260Z,99098.36
2022-08-28T05:17:04.169Z,99097.62
2022-08-28T05:22:07.350Z,99099.27
2022-08-28T05:27:10.842Z,99102.75
2022-08-28T05:32:13.794Z,99106.87
2022-08-28T05:37:19.764Z,99107.00
2022-08-28T05:42:22.913Z,99106.64
2022-08-28T05:47:32.873Z,99104.48
2022-08-28T05:52:36.497Z,99104.03
2022-08-28T05:57:41.114Z,99102.24
2022-08-28T06:02:44.652Z,99095.60
2022-08-28T06:07:47.629Z,99094.33
2022-08-28T06:12:50.680Z,99092.64
2022-08-28T06:17:53.882Z,99090.59
2022-08-28T06:22:56.864Z,99089.12
2022-08-28T06:27:59.827Z,99091.38
2022-08-28T06:33:04.215Z,99093.06
2022-08-28T06:38:07.255Z,99093.95
2022-08-28T06:43:11.022Z,99096.84
2022-08-28T06:48:17.760Z,99097.27
2022-08-28T06:53:30.927Z,99092.48
2022-08-28T06:58:39.474Z,99096.77
2022-08-28T07:03:44.453Z,99098.95
2022-08-28T07:08:48.237Z,99099.26
2022-08-28T07:13:55.369Z,99102.08
2022-08-28T07:18:59.892Z,99105.12
2022-08-28T07:24:04.769Z,99110.44
2022-08-28T07:29:10.148Z,99113.45
2022-08-28T07:34:17.196Z,99115.00
2022-08-28T07:39:20.291Z,99123.02
2022-08-28T07:44:41.892Z,99120.64
2022-08-28T07:49:45.198Z,99116.06
2022-08-28T07:54:49.206Z,99117.08
2022-08-28T07:59:52.624Z,99118.91
2022-08-28T08:04:55.968Z,99122.22
2022-08-28T08:09:59.012Z,99120.81
2022-08-28T08:15:02.039Z,99118.54
2022-08-28T08:20:07.389Z,99123.25
2022-08-28T08:25:10.443Z,99122.52
2022-08-28T08:30:13.673Z,99123.52
2022-08-28T08:35:17.427Z,99126.33
2022-08-28T08:40:20.800Z,99119.86
2022-08-28T08:45:26.819Z,99117.89
2022-08-28T08:50:34.608Z,99116.21
2022-08-28T08:55:47.724Z,99116.44
2022-08-28T09:01:32.658Z,99116.44
2022-08-28T09:06:52.967Z,99117.23
2022-08-28T09:12:09.276Z,99118.89
2022-08-28T09:17:16.790Z,99115.66
2022-08-28T09:22:19.781Z,99119.48
2022-08-28T09:27:30.000Z,99122.80
2022-08-28T09:32:43.730Z,99130.33
2022-08-28T09:37:46.857Z,99134.86
2022-08-28T09:43:25.406Z,99128.27
2022-08-28T09:48:41.498Z,99123.27
2022-08-28T09:53:56.980Z,99118.85
2022-08-28T09:59:06.026Z,99117.20
2022-08-28T10:04:26.133Z,99114.86
2022-08-28T10:09:47.964Z,99113.45
2022-08-28T10:15:05.457Z,99104.70
2022-08-28T10:20:26.893Z,99104.33
2022-08-28T10:25:50.265Z,99101.56
2022-08-28T10:31:15.529Z,99105.17
2022-08-28T10:36:34.683Z,99101.94
2022-08-28T10:41:55.179Z,99095.93
2022-08-28T10:46:59.186Z,99090.70
2022-08-28T10:52:34.004Z,99090.46
2022-08-28T10:57:52.352Z,99091.64
2022-08-28T11:03:01.914Z,99094.62
2022-08-28T11:08:23.670Z,99092.73
2022-08-28T11:13:39.302Z,99091.05
2022-08-28T11:19:20.090Z,99090.20
2022-08-28T11:24:59.313Z,99089.09
2022-08-28T11:30:11.598Z,99088.20
2022-08-28T11:35:51.352Z,99086.59
2022-08-28T11:40:57.213Z,99086.60
2022-08-28T11:46:00.226Z,99086.31
2022-08-28T11:51:18.281Z,99084.04
2022-08-28T11:56:59.562Z,99079.13
2022-08-28T12:02:40.160Z,99075.92
2022-08-28T12:07:50.322Z,99070.98
2022-08-28T12:13:02.493Z,99062.30
2022-08-28T12:18:13.585Z,99058.80
2022-08-28T12:23:38.160Z,99051.95
2022-08-28T12:28:50.875Z,99054.69
2022-08-28T12:34:03.996Z,99056.09
2022-08-28T12:39:18.293Z,99046.26
2022-08-28T12:44:32.974Z,99041.90
2022-08-28T12:49:38.738Z,99030.58
2022-08-28T12:54:42.827Z,99024.27
2022-08-28T12:59:49.417Z,99025.03
2022-08-28T13:05:07.676Z,99030.42
2022-08-28T13:10:24.649Z,99033.70
2022-08-28T13:15:48.031Z,99023.88
2022-08-28T13:20:51.019Z,99021.05
2022-08-28T13:26:07.190Z,99013.76
2022-08-28T13:31:41.218Z,99016.55
2022-08-28T13:36:45.550Z,99017.25
2022-08-28T13:41:54.030Z,99016.20
2022-08-28T13:46:59.960Z,99017.92
2022-08-28T13:52:07.121Z,99021.90
2022-08-28T13:57:10.154Z,99022.34
2022-08-28T14:02:33.571Z,99026.27
2022-08-28T14:07:37.329Z,99023.05
2022-08-28T14:12:43.395Z,99025.73
2022-08-28T14:17:46.529Z,99025.75
2022-08-28T14:22:49.600Z,99026.17
2022-08-28T14:27:52.597Z,99030.27
2022-08-28T14:32:56.265Z,99025.72
2022-08-28T14:37:59.366Z,99033.61
2022-08-28T14:43:02.375Z,99041.98
2022-08-28T14:48:05.384Z,99052.03
2022-08-28T14:53:10.739Z,99059.05
2022-08-28T14:58:15.826Z,99068.38
2022-08-28T15:03:20.157Z,99071.69
2022-08-28T15:08:23.139Z,99069.96
2022-08-28T15:13:26.110Z,99073.60
2022-08-28T15:18:34.699Z,99080.23
2022-08-28T15:23:37.657Z,99090.20
2022-08-28T15:28:41.088Z,99091.08
2022-08-28T15:33:45.521Z,99084.73
2022-08-28T15:39:07.224Z,99092.14
2022-08-28T15:44:14.878Z,99084.88
2022-08-28T15:49:20.554Z,99088.03
2022-08-28T15:54:27.795Z,99085.36
2022-08-28T15:59:47.930Z,99085.90
2022-08-28T16:04:54.918Z,99082.04
2022-08-28T16:09:57.991Z,99092.42
2022-08-28T16:15:01.158Z,99094.81
2022-08-28T16:20:12.376Z,99089.94
2022-08-28T16:25:16.115Z,99086.68
2022-08-28T16:30:19.291Z,99088.52
2022-08-28T16:35:27.022Z,99092.11
2022-08-28T16:40:30.142Z,99082.39
2022-08-28T16:45:33.850Z,99082.96
2022-08-28T16:50:36.984Z,99082.10
2022-08-28T16:55:43.588Z,99086.23
2022-08-28T17:00:52.341Z,99089.95
2022-08-28T17:05:58.902Z,99086.75
2022-08-28T17:11:01.917Z,99089.20
2022-08-28T17:16:06.157Z,99099.83
2022-08-28T17:21:28.773Z,99104.68
2022-08-28T17:26:31.763Z,99106.98
2022-08-28T17:31:34.895Z,99108.29
2022-08-28T17:36:40.578Z,99114.13
2022-08-28T17:41:43.696Z,99117.89
2022-08-28T17:46:46.793Z,99116.31
2022-08-28T17:51:49.902Z,99129.48
2022-08-28T17:56:54.563Z,99134.45
2022-08-28T18:01:57.648Z,99142.52
2022-08-28T18:07:02.002Z,99144.78
2022-08-28T18:12:06.952Z,99146.92
2022-08-28T18:17:16.440Z,99150.59
2022-08-28T18:22:19.491Z,99157.90
2022-08-28T18:27:22.832Z,99161.27
2022-08-28T18:32:25.956Z,99162.08
2022-08-28T18:37:29.045Z,99158.98
2022-08-28T18:42:32.059Z,99156.20
2022-08-28T18:47:35.925Z,99155.80
2022-08-28T18:52:39.395Z,99157.90
2022-08-28T18:57:42.646Z,99158.92
2022-08-28T19:02:46.233Z,99157.95
2022-08-28T19:07:50.575Z,99163.20
2022-08-28T19:12:53.653Z,99168.06
2022-08-28T19:17:56.728Z,99168.00
2022-08-28T19:23:00.077Z,99160.48
2022-08-28T19:28:03.494Z,99161.58
2022-08-28T19:33:07.133Z,99162.09
2022-08-28T19:38:10.212Z,99163.77
2022-08-28T19:43:16.747Z,99158.60
2022-08-28T19:48:20.095Z,99165.98
2022-08-28T19:53:23.099Z,99163.94
2022-08-28T19:58:26.380Z,99165.07
2022-08-28T20:03:30.413Z,99166.52
2022-08-28T20:08:34.486Z,99172.21
2022-08-28T20:13:37.535Z,99174.23
2022-08-28T20:18:40.570Z,99178.11
2022-08-28T20:23:43.514Z,99183.38
2022-08-28T20:28:46.663Z,99187.02
2022-08-28T20:33:51.700Z,99189.02
2022-08-28T20:38:55.064Z,99187.27
2022-08-28T20:43:58.088Z,99195.94
2022-08-28T20:49:03.699Z,99197.48
2022-08-28T20:54:06.991Z,99194.30
2022-08-28T20:59:10.739Z,99190.43
2022-08-28T21:04:13.704Z,99185.66
2022-08-28T21:09:17.200Z,99185.65
2022-08-28T21:14:20.233Z,99188.76
2022-08-28T21:19:23.730Z,99194.18
2022-08-28T21:24:27.427Z,99198.98
2022-08-28T21:29:30.443Z,99198.80
2022-08-28T21:34:33.433Z,99203.23
2022-08-28T21:39:36.399Z,99210.59
2022-08-28T21:44:39.679Z,99212.70
2022-08-28T21:49:50.310Z,99213.33
2022-08-28T21:55:02.862Z,99213.58
2022-08-28T22:00:13.113Z,99213.50
2022-08-28T22:05:16.503Z,99215.08
2022-08-28T22:10:19.601Z,99216.02
2022-08-28T22:15:23.249Z,99221.54
2022-08-28T22:20:28.163Z,99226.81
2022-08-28T22:25:31.604Z,99229.59
2022-08-28T22:30:35.056Z,99231.53
2022-08-28T22:35:38.667Z,99229.13
2022-08-28T22:40:42.162Z,99241.77
2022-08-28T22:45:48.912Z,99246.70
2022-08-28T22:51:00.109Z,99246.89
2022-08-28T22:56:03.834Z,99241.57
2022-08-28T23:01:17.738Z,99241.30
2022-08-28T23:06:21.803Z,99238.04
2022-08-28T23:11:24.814Z,99231.83
2022-08-28T23:16:28.077Z,99227.98
2022-08-28T23:21:31.916Z,99218.05
2022-08-28T23:26:35.098Z,99218.86
2022-08-28T23:31:39.084Z,99213.65
2022-08-28T23:36:42.974Z,99226.91
2022-08-28T23:41:46.800Z,99228.02
2022-08-28T23:46:49.794Z,99230.14
2022-08-28T23:51:52.787Z,99233.17
2022-08-28T23:56:55.809Z,99238.85
